sensor_id;sensor_type;location;lat;lon;timestamp;pressure;altitude;pressure_sealevel;temperature;humidity
43701;BME280;58809;47.984;7.964;2022-07-11T00:02:41;97829.16;;;14.50;nan
43701;BME280;58809;47.984;7.964;2022-07-11T00:05:43;97835.56;;;14.55;nan
43701;BME280;58809;47.984;7.964;2022-07-11T00:08:45;97824.81;;;14.49;nan
43701;BME280;58809;47.984;7.964;2022-07-11T00:11:47;97832.16;;;14.40;nan
43701;BME280;58809;47.984;7.964;2022-07-11T00:14:49;97831.31;;;14.39;nan
43701;BME280;58809;47.984;7.964;2022-07-11T00:17:51;97824.38;;;14.45;nan
43701;BME280;58809;47.984;7.964;2022-07-11T00:20:52;97830.94;;;14.42;nan
43701;BME280;58809;47.984;7.964;2022-07-11T00:23:54;97821.41;;;14.33;nan
43701;BME280;58809;47.984;7.964;2022-07-11T00:26:55;97822.50;;;14.39;nan
43701;BME280;58809;47.984;7.964;2022-07-11T00:29:57;97822.38;;;14.47;nan
43701;BME280;58809;47.984;7.964;2022-07-11T00:32:58;97813.50;;;14.40;nan
43701;BME280;58809;47.984;7.964;2022-07-11T00:36:00;97810.00;;;14.39;nan
43701;BME280;58809;47.984;7.964;2022-07-11T00:39:02;97809.44;;;14.44;nan
43701;BME280;58809;47.984;7.964;2022-07-11T00:42:04;97819.19;;;14.37;nan
43701;BME280;58809;47.984;7.964;2022-07-11T00:45:06;97816.72;;;14.35;nan
43701;BME280;58809;47.984;7.964;2022-07-11T00:48:07;97801.13;;;14.32;nan
43701;BME280;58809;47.984;7.964;2022-07-11T00:51:09;97806.66;;;14.31;nan
43701;BME280;58809;47.984;7.964;2022-07-11T00:54:11;97807.97;;;14.20;nan
43701;BME280;58809;47.984;7.964;2022-07-11T00:57:13;97803.66;;;14.19;nan
43701;BME280;58809;47.984;7.964;2022-07-11T01:00:15;97806.31;;;14.19;nan
43701;BME280;58809;47.984;7.964;2022-07-11T01:03:19;97811.91;;;14.24;nan
43701;BME280;58809;47.984;7.964;2022-07-11T01:06:20;97808.81;;;14.20;nan
43701;BME280;58809;47.984;7.964;2022-07-11T01:09:22;97804.25;;;14.14;nan
43701;BME280;58809;47.984;7.964;2022-07-11T01:12:24;97804.63;;;14.11;nan
43701;BME280;58809;47.984;7.964;2022-07-11T01:15:26;97807.47;;;14.10;nan
43701;BME280;58809;47.984;7.964;2022-07-11T01:18:28;97802.06;;;14.03;nan
43701;BME280;58809;47.984;7.964;2022-07-11T01:21:37;97798.13;;;13.99;nan
43701;BME280;58809;47.984;7.964;2022-07-11T01:24:42;97798.25;;;13.91;nan
43701;BME280;58809;47.984;7.964;2022-07-11T01:27:44;97783.50;;;13.73;nan
43701;BME280;58809;47.984;7.964;2022-07-11T01:30:45;97786.34;;;13.72;nan
43701;BME280;58809;47.984;7.964;2022-07-11T01:33:47;97780.13;;;13.64;nan
43701;BME280;58809;47.984;7.964;2022-07-11T01:36:49;97781.34;;;13.62;nan
43701;BME280;58809;47.984;7.964;2022-07-11T01:39:50;97776.19;;;13.60;nan
43701;BME280;58809;47.984;7.964;2022-07-11T01:42:52;97780.34;;;13.63;nan
43701;BME280;58809;47.984;7.964;2022-07-11T01:45:54;97780.44;;;13.55;nan
43701;BME280;58809;47.984;7.964;2022-07-11T01:48:56;97776.50;;;13.51;nan
43701;BME280;58809;47.984;7.964;2022-07-11T01:51:58;97773.66;;;13.52;nan
43701;BME280;58809;47.984;7.964;2022-07-11T01:54:59;97770.72;;;13.47;nan
43701;BME280;58809;47.984;7.964;2022-07-11T01:58:01;97771.03;;;13.37;nan
43701;BME280;58809;47.984;7.964;2022-07-11T02:01:03;97768.56;;;13.36;nan
43701;BME280;58809;47.984;7.964;2022-07-11T02:04:04;97773.22;;;13.34;nan
43701;BME280;58809;47.984;7.964;2022-07-11T02:07:07;97773.47;;;13.39;nan
43701;BME280;58809;47.984;7.964;2022-07-11T02:10:09;97764.22;;;13.35;nan
43701;BME280;58809;47.984;7.964;2022-07-11T02:13:12;97769.97;;;13.23;nan
43701;BME280;58809;47.984;7.964;2022-07-11T02:16:14;97767.91;;;13.19;nan
43701;BME280;58809;47.984;7.964;2022-07-11T02:19:16;97766.50;;;13.08;nan
43701;BME280;58809;47.984;7.964;2022-07-11T02:22:17;97773.84;;;13.21;nan
43701;BME280;58809;47.984;7.964;2022-07-11T02:25:19;97764.09;;;13.13;nan
43701;BME280;58809;47.984;7.964;2022-07-11T02:28:22;97768.31;;;13.07;nan
43701;BME280;58809;47.984;7.964;2022-07-11T02:31:24;97767.22;;;13.02;nan
43701;BME280;58809;47.984;7.964;2022-07-11T02:34:25;97773.09;;;12.97;nan
43701;BME280;58809;47.984;7.964;2022-07-11T02:37:28;97770.34;;;12.90;nan
43701;BME280;58809;47.984;7.964;2022-07-11T02:40:29;97768.88;;;12.88;nan
43701;BME280;58809;47.984;7.964;2022-07-11T02:43:31;97767.88;;;12.89;nan
43701;BME280;58809;47.984;7.964;2022-07-11T02:46:33;97770.91;;;12.86;nan
43701;BME280;58809;47.984;7.964;2022-07-11T02:49:34;97771.06;;;12.84;nan
43701;BME280;58809;47.984;7.964;2022-07-11T02:52:36;97761.44;;;12.83;nan
43701;BME280;58809;47.984;7.964;2022-07-11T02:55:38;97756.13;;;12.83;nan
43701;BME280;58809;47.984;7.964;2022-07-11T02:58:40;97761.09;;;12.86;nan
43701;BME280;58809;47.984;7.964;2022-07-11T03:01:40;97763.75;;;12.86;nan
43701;BME280;58809;47.984;7.964;2022-07-11T03:04:45;97772.47;;;12.95;nan
43701;BME280;58809;47.984;7.964;2022-07-11T03:07:46;97780.06;;;12.98;nan
43701;BME280;58809;47.984;7.964;2022-07-11T03:10:48;97772.66;;;12.94;nan
43701;BME280;58809;47.984;7.964;2022-07-11T03:13:49;97774.56;;;12.85;nan
43701;BME280;58809;47.984;7.964;2022-07-11T03:16:51;97776.00;;;12.87;nan
43701;BME280;58809;47.984;7.964;2022-07-11T03:19:53;97774.38;;;12.86;nan
43701;BME280;58809;47.984;7.964;2022-07-11T03:22:54;97774.09;;;12.81;nan
43701;BME280;58809;47.984;7.964;2022-07-11T03:25:56;97768.94;;;12.80;nan
43701;BME280;58809;47.984;7.964;2022-07-11T03:28:57;97769.69;;;12.74;nan
43701;BME280;58809;47.984;7.964;2022-07-11T03:31:59;97765.06;;;12.67;nan
43701;BME280;58809;47.984;7.964;2022-07-11T03:35:01;97766.22;;;12.73;nan
43701;BME280;58809;47.984;7.964;2022-07-11T03:38:21;97766.28;;;12.80;nan
43701;BME280;58809;47.984;7.964;2022-07-11T03:41:23;97762.34;;;12.76;nan
43701;BME280;58809;47.984;7.964;2022-07-11T03:44:24;97768.50;;;12.76;nan
43701;BME280;58809;47.984;7.964;2022-07-11T03:47:26;97767.66;;;12.76;nan
43701;BME280;58809;47.984;7.964;2022-07-11T03:50:27;97768.31;;;12.78;nan
43701;BME280;58809;47.984;7.964;2022-07-11T03:53:30;97763.19;;;12.76;nan
43701;BME280;58809;47.984;7.964;2022-07-11T03:56:32;97759.25;;;12.72;nan
43701;BME280;58809;47.984;7.964;2022-07-11T03:59:33;97749.59;;;12.71;nan
43701;BME280;58809;47.984;7.964;2022-07-11T04:02:35;97752.66;;;12.68;nan
43701;BME280;58809;47.984;7.964;2022-07-11T04:05:37;97754.66;;;12.66;nan
43701;BME280;58809;47.984;7.964;2022-07-11T04:08:39;97745.69;;;12.67;nan
43701;BME280;58809;47.984;7.964;2022-07-11T04:11:40;97747.63;;;12.73;nan
43701;BME280;58809;47.984;7.964;2022-07-11T04:14:42;97753.94;;;12.72;nan
43701;BME280;58809;47.984;7.964;2022-07-11T04:17:44;97759.19;;;12.80;nan
43701;BME280;58809;47.984;7.964;2022-07-11T04:20:45;97762.47;;;12.82;nan
43701;BME280;58809;47.984;7.964;2022-07-11T04:23:47;97763.28;;;12.83;nan
43701;BME280;58809;47.984;7.964;2022-07-11T04:26:49;97765.13;;;12.82;nan
43701;BME280;58809;47.984;7.964;2022-07-11T04:29:51;97768.25;;;12.86;nan
43701;BME280;58809;47.984;7.964;2022-07-11T04:32:52;97769.16;;;12.93;nan
43701;BME280;58809;47.984;7.964;2022-07-11T04:35:54;97770.53;;;13.04;nan
43701;BME280;58809;47.984;7.964;2022-07-11T04:38:56;97776.41;;;13.14;nan
43701;BME280;58809;47.984;7.964;2022-07-11T04:41:58;97775.13;;;13.25;nan
43701;BME280;58809;47.984;7.964;2022-07-11T04:45:00;97770.75;;;13.32;nan
43701;BME280;58809;47.984;7.964;2022-07-11T04:48:02;97770.47;;;13.42;nan
43701;BME280;58809;47.984;7.964;2022-07-11T04:51:05;97773.72;;;13.59;nan
43701;BME280;58809;47.984;7.964;2022-07-11T04:54:07;97776.56;;;13.72;nan
43701;BME280;58809;47.984;7.964;2022-07-11T04:57:10;97775.63;;;13.80;nan
43701;BME280;58809;47.984;7.964;2022-07-11T05:00:12;97787.66;;;13.97;nan
43701;BME280;58809;47.984;7.964;2022-07-11T05:03:13;97781.34;;;13.98;nan
43701;BME280;58809;47.984;7.964;2022-07-11T05:06:16;97769.31;;;14.02;nan
43701;BME280;58809;47.984;7.964;2022-07-11T05:09:17;97775.41;;;14.18;nan
43701;BME280;58809;47.984;7.964;2022-07-11T05:12:19;97773.50;;;14.33;nan
43701;BME280;58809;47.984;7.964;2022-07-11T05:15:21;97775.09;;;14.49;nan
43701;BME280;58809;47.984;7.964;2022-07-11T05:18:24;97774.78;;;14.59;nan
43701;BME280;58809;47.984;7.964;2022-07-11T05:21:25;97780.19;;;14.72;nan
43701;BME280;58809;47.984;7.964;2022-07-11T05:24:27;97773.72;;;14.81;nan
43701;BME280;58809;47.984;7.964;2022-07-11T05:27:29;97781.19;;;14.93;nan
43701;BME280;58809;47.984;7.964;2022-07-11T05:30:30;97782.47;;;15.04;nan
43701;BME280;58809;47.984;7.964;2022-07-11T05:33:32;97787.50;;;15.20;nan
43701;BME280;58809;47.984;7.964;2022-07-11T05:36:34;97783.03;;;15.27;nan
43701;BME280;58809;47.984;7.964;2022-07-11T05:39:36;97789.41;;;15.33;nan
43701;BME280;58809;47.984;7.964;2022-07-11T05:42:37;97782.06;;;15.42;nan
43701;BME280;58809;47.984;7.964;2022-07-11T05:45:39;97787.06;;;15.58;nan
43701;BME280;58809;47.984;7.964;2022-07-11T05:48:40;97784.03;;;15.68;nan
43701;BME280;58809;47.984;7.964;2022-07-11T05:51:42;97786.19;;;15.79;nan
43701;BME280;58809;47.984;7.964;2022-07-11T05:54:44;97782.94;;;15.97;nan
43701;BME280;58809;47.984;7.964;2022-07-11T05:57:45;97791.22;;;16.15;nan
43701;BME280;58809;47.984;7.964;2022-07-11T06:00:47;97769.88;;;16.29;nan
43701;BME280;58809;47.984;7.964;2022-07-11T06:03:49;97770.69;;;16.43;nan
43701;BME280;58809;47.984;7.964;2022-07-11T06:06:51;97768.25;;;16.54;nan
43701;BME280;58809;47.984;7.964;2022-07-11T06:09:52;97771.50;;;16.70;nan
43701;BME280;58809;47.984;7.964;2022-07-11T06:12:54;97771.94;;;16.80;nan
43701;BME280;58809;47.984;7.964;2022-07-11T06:15:56;97767.41;;;16.94;nan
43701;BME280;58809;47.984;7.964;2022-07-11T06:18:58;97767.19;;;17.02;nan
43701;BME280;58809;47.984;7.964;2022-07-11T06:21:59;97761.63;;;17.10;nan
43701;BME280;58809;47.984;7.964;2022-07-11T06:25:01;97764.28;;;17.24;nan
43701;BME280;58809;47.984;7.964;2022-07-11T06:28:04;97759.09;;;17.36;nan
43701;BME280;58809;47.984;7.964;2022-07-11T06:31:06;97757.00;;;17.44;nan
43701;BME280;58809;47.984;7.964;2022-07-11T06:34:07;97752.41;;;17.65;nan
43701;BME280;58809;47.984;7.964;2022-07-11T06:37:09;97766.94;;;17.82;nan
43701;BME280;58809;47.984;7.964;2022-07-11T06:40:10;97768.38;;;17.92;nan
43701;BME280;58809;47.984;7.964;2022-07-11T06:43:13;97763.53;;;18.07;nan
43701;BME280;58809;47.984;7.964;2022-07-11T06:46:15;97753.59;;;18.14;nan
43701;BME280;58809;47.984;7.964;2022-07-11T06:49:17;97762.81;;;18.25;nan
43701;BME280;58809;47.984;7.964;2022-07-11T06:52:19;97770.19;;;18.30;nan
43701;BME280;58809;47.984;7.964;2022-07-11T06:55:20;97761.09;;;18.37;nan
43701;BME280;58809;47.984;7.964;2022-07-11T06:58:22;97774.59;;;18.49;nan
43701;BME280;58809;47.984;7.964;2022-07-11T07:01:36;97760.03;;;18.63;nan
43701;BME280;58809;47.984;7.964;2022-07-11T07:04:38;97758.34;;;18.69;nan
43701;BME280;58809;47.984;7.964;2022-07-11T07:07:40;97759.47;;;18.87;nan
43701;BME280;58809;47.984;7.964;2022-07-11T07:10:42;97764.91;;;18.98;nan
43701;BME280;58809;47.984;7.964;2022-07-11T07:13:44;97764.25;;;19.03;nan
43701;BME280;58809;47.984;7.964;2022-07-11T07:16:47;97757.31;;;19.14;nan
43701;BME280;58809;47.984;7.964;2022-07-11T07:19:49;97767.41;;;19.18;nan
43701;BME280;58809;47.984;7.964;2022-07-11T07:22:50;97761.66;;;19.33;nan
43701;BME280;58809;47.984;7.964;2022-07-11T07:25:52;97766.28;;;19.45;nan
43701;BME280;58809;47.984;7.964;2022-07-11T07:28:54;97762.63;;;19.57;nan
43701;BME280;58809;47.984;7.964;2022-07-11T07:31:56;97766.75;;;19.60;nan
43701;BME280;58809;47.984;7.964;2022-07-11T07:34:58;97758.22;;;19.63;nan
43701;BME280;58809;47.984;7.964;2022-07-11T07:38:00;97763.69;;;19.75;nan
43701;BME280;58809;47.984;7.964;2022-07-11T07:41:01;97761.28;;;19.85;nan
43701;BME280;58809;47.984;7.964;2022-07-11T07:44:03;97759.28;;;19.80;nan
43701;BME280;58809;47.984;7.964;2022-07-11T07:47:05;97761.63;;;19.89;nan
43701;BME280;58809;47.984;7.964;2022-07-11T07:50:08;97761.84;;;20.06;nan
43701;BME280;58809;47.984;7.964;2022-07-11T07:53:10;97762.09;;;20.16;nan
43701;BME280;58809;47.984;7.964;2022-07-11T07:56:11;97747.41;;;20.30;nan
43701;BME280;58809;47.984;7.964;2022-07-11T07:59:13;97753.28;;;20.39;nan
43701;BME280;58809;47.984;7.964;2022-07-11T08:02:14;97753.16;;;20.34;nan
43701;BME280;58809;47.984;7.964;2022-07-11T08:05:18;97756.19;;;20.37;nan
43701;BME280;58809;47.984;7.964;2022-07-11T08:08:20;97748.13;;;20.37;nan
43701;BME280;58809;47.984;7.964;2022-07-11T08:11:21;97744.19;;;20.52;nan
43701;BME280;58809;47.984;7.964;2022-07-11T08:14:32;97749.00;;;20.62;nan
43701;BME280;58809;47.984;7.964;2022-07-11T08:17:33;97752.19;;;20.70;nan
43701;BME280;58809;47.984;7.964;2022-07-11T08:20:35;97751.16;;;20.83;nan
43701;BME280;58809;47.984;7.964;2022-07-11T08:23:36;97738.97;;;20.92;nan
43701;BME280;58809;47.984;7.964;2022-07-11T08:26:38;97747.16;;;20.98;nan
43701;BME280;58809;47.984;7.964;2022-07-11T08:29:40;97733.84;;;21.03;nan
43701;BME280;58809;47.984;7.964;2022-07-11T08:32:42;97727.97;;;21.18;nan
43701;BME280;58809;47.984;7.964;2022-07-11T08:35:44;97733.78;;;21.26;nan
43701;BME280;58809;47.984;7.964;2022-07-11T08:38:47;97731.44;;;21.30;nan
43701;BME280;58809;47.984;7.964;2022-07-11T08:41:49;97735.19;;;21.52;nan
43701;BME280;58809;47.984;7.964;2022-07-11T08:44:51;97730.84;;;21.51;nan
43701;BME280;58809;47.984;7.964;2022-07-11T08:47:54;97734.44;;;21.57;nan
43701;BME280;58809;47.984;7.964;2022-07-11T08:50:56;97729.56;;;21.54;nan
43701;BME280;58809;47.984;7.964;2022-07-11T08:53:58;97728.78;;;21.70;nan
43701;BME280;58809;47.984;7.964;2022-07-11T08:57:00;97722.34;;;21.71;nan
43701;BME280;58809;47.984;7.964;2022-07-11T09:00:08;97712.00;;;21.80;nan
43701;BME280;58809;47.984;7.964;2022-07-11T09:03:14;97711.03;;;21.86;nan
43701;BME280;58809;47.984;7.964;2022-07-11T09:06:17;97719.88;;;21.99;nan
43701;BME280;58809;47.984;7.964;2022-07-11T09:09:18;97722.34;;;22.00;nan
43701;BME280;58809;47.984;7.964;2022-07-11T09:12:20;97713.19;;;22.01;nan
43701;BME280;58809;47.984;7.964;2022-07-11T09:15:42;97716.88;;;22.12;nan
43701;BME280;58809;47.984;7.964;2022-07-11T09:18:44;97707.22;;;22.28;nan
43701;BME280;58809;47.984;7.964;2022-07-11T09:22:15;97705.84;;;22.42;nan
43701;BME280;58809;47.984;7.964;2022-07-11T09:25:42;97705.50;;;22.56;nan
43701;BME280;58809;47.984;7.964;2022-07-11T09:28:58;97709.91;;;22.79;nan
43701;BME280;58809;47.984;7.964;2022-07-11T09:32:00;97700.69;;;22.97;nan
43701;BME280;58809;47.984;7.964;2022-07-11T09:35:01;97699.22;;;23.06;nan
43701;BME280;58809;47.984;7.964;2022-07-11T09:38:04;97701.13;;;23.05;nan
43701;BME280;58809;47.984;7.964;2022-07-11T09:41:10;97699.88;;;23.13;nan
43701;BME280;58809;47.984;7.964;2022-07-11T09:44:15;97688.97;;;23.25;nan
43701;BME280;58809;47.984;7.964;2022-07-11T09:47:17;97701.84;;;23.40;nan
43701;BME280;58809;47.984;7.964;2022-07-11T09:50:24;97693.72;;;23.40;nan
43701;BME280;58809;47.984;7.964;2022-07-11T09:53:26;97688.19;;;23.52;nan
43701;BME280;58809;47.984;7.964;2022-07-11T09:59:54;97686.00;;;23.98;nan
43701;BME280;58809;47.984;7.964;2022-07-11T10:02:58;97681.53;;;24.09;nan
43701;BME280;58809;47.984;7.964;2022-07-11T10:06:00;97684.34;;;24.24;nan
43701;BME280;58809;47.984;7.964;2022-07-11T10:09:03;97694.16;;;24.35;nan
43701;BME280;58809;47.984;7.964;2022-07-11T10:12:06;97699.53;;;24.30;nan
43701;BME280;58809;47.984;7.964;2022-07-11T10:15:10;97694.72;;;24.37;nan
43701;BME280;58809;47.984;7.964;2022-07-11T10:19:34;97701.84;;;24.49;nan
43701;BME280;58809;47.984;7.964;2022-07-11T10:25:19;97693.53;;;24.23;nan
43701;BME280;58809;47.984;7.964;2022-07-11T10:28:36;97684.22;;;24.41;nan
43701;BME280;58809;47.984;7.964;2022-07-11T10:31:39;97694.19;;;24.68;nan
43701;BME280;58809;47.984;7.964;2022-07-11T10:35:10;60547.97;;;-144.80;100.00
43701;BME280;58809;47.984;7.964;2022-07-11T10:38:13;60547.97;;;-144.80;100.00
43701;BME280;58809;47.984;7.964;2022-07-11T10:41:21;60547.97;;;-144.80;100.00
43701;BME280;58809;47.984;7.964;2022-07-11T10:44:24;60547.97;;;-144.80;100.00
43701;BME280;58809;47.984;7.964;2022-07-11T10:50:38;60547.97;;;-144.80;100.00
43701;BME280;58809;47.984;7.964;2022-07-11T10:53:47;60547.97;;;-144.80;100.00
43701;BME280;58809;47.984;7.964;2022-07-11T10:57:00;60547.97;;;-144.80;100.00
43701;BME280;58809;47.984;7.964;2022-07-11T11:00:06;60547.97;;;-144.80;100.00
43701;BME280;58809;47.984;7.964;2022-07-11T11:03:10;60547.97;;;-144.80;100.00
43701;BME280;58809;47.984;7.964;2022-07-11T11:06:12;60547.97;;;-144.80;100.00
43701;BME280;58809;47.984;7.964;2022-07-11T11:09:36;60547.97;;;-144.80;100.00
43701;BME280;58809;47.984;7.964;2022-07-11T11:16:20;60547.97;;;-144.80;100.00
43701;BME280;58809;47.984;7.964;2022-07-11T11:23:09;60547.97;;;-144.80;100.00
43701;BME280;58809;47.984;7.964;2022-07-11T11:26:19;60547.97;;;-144.80;100.00
43701;BME280;58809;47.984;7.964;2022-07-11T11:29:23;60547.97;;;-144.80;100.00
43701;BME280;58809;47.984;7.964;2022-07-11T11:32:30;60547.97;;;-144.80;100.00
43701;BME280;58809;47.984;7.964;2022-07-11T11:35:41;60547.97;;;-144.80;100.00
43701;BME280;58809;47.984;7.964;2022-07-11T11:41:44;60547.97;;;-144.80;100.00
43701;BME280;58809;47.984;7.964;2022-07-11T11:44:57;60547.97;;;-144.80;100.00
43701;BME280;58809;47.984;7.964;2022-07-11T11:48:00;60547.97;;;-144.80;100.00
43701;BME280;58809;47.984;7.964;2022-07-11T11:51:06;60547.97;;;-144.80;100.00
43701;BME280;58809;47.984;7.964;2022-07-11T11:54:08;60547.97;;;-144.80;100.00
43701;BME280;58809;47.984;7.964;2022-07-11T11:57:11;60547.97;;;-144.80;100.00
43701;BME280;58809;47.984;7.964;2022-07-11T12:00:20;60547.97;;;-144.80;100.00
43701;BME280;58809;47.984;7.964;2022-07-11T12:03:51;60547.97;;;-144.80;100.00
43701;BME280;58809;47.984;7.964;2022-07-11T12:06:54;60547.97;;;-144.80;100.00
43701;BME280;58809;47.984;7.964;2022-07-11T12:09:57;60547.97;;;-144.80;100.00
43701;BME280;58809;47.984;7.964;2022-07-11T12:13:00;60547.97;;;-144.80;100.00
43701;BME280;58809;47.984;7.964;2022-07-11T12:16:02;60547.97;;;-144.80;100.00
43701;BME280;58809;47.984;7.964;2022-07-11T12:19:23;60547.97;;;-144.80;100.00
43701;BME280;58809;47.984;7.964;2022-07-11T12:22:25;60547.97;;;-144.80;100.00
43701;BME280;58809;47.984;7.964;2022-07-11T12:25:30;60547.97;;;-144.80;100.00
43701;BME280;58809;47.984;7.964;2022-07-11T12:28:32;60547.97;;;-144.80;100.00
43701;BME280;58809;47.984;7.964;2022-07-11T12:31:43;60547.97;;;-144.80;100.00
43701;BME280;58809;47.984;7.964;2022-07-11T12:34:48;60547.97;;;-144.80;100.00
43701;BME280;58809;47.984;7.964;2022-07-11T12:37:59;60547.97;;;-144.80;100.00
43701;BME280;58809;47.984;7.964;2022-07-11T12:41:03;60547.97;;;-144.80;100.00
43701;BME280;58809;47.984;7.964;2022-07-11T12:44:05;60547.97;;;-144.80;100.00
43701;BME280;58809;47.984;7.964;2022-07-11T12:47:28;60547.97;;;-144.80;100.00
43701;BME280;58809;47.984;7.964;2022-07-11T12:50:30;60547.97;;;-144.80;100.00
43701;BME280;58809;47.984;7.964;2022-07-11T12:53:32;60547.97;;;-144.80;100.00
43701;BME280;58809;47.984;7.964;2022-07-11T12:56:35;60547.97;;;-144.80;100.00
43701;BME280;58809;47.984;7.964;2022-07-11T12:59:39;60547.97;;;-144.80;100.00
43701;BME280;58809;47.984;7.964;2022-07-11T13:02:41;60547.97;;;-144.80;100.00
43701;BME280;58809;47.984;7.964;2022-07-11T13:05:50;60547.97;;;-144.80;100.00
43701;BME280;58809;47.984;7.964;2022-07-11T13:08:52;60547.97;;;-144.80;100.00
43701;BME280;58809;47.984;7.964;2022-07-11T13:11:55;60547.97;;;-144.80;100.00
43701;BME280;58809;47.984;7.964;2022-07-11T13:14:59;60547.97;;;-144.80;100.00
43701;BME280;58809;47.984;7.964;2022-07-11T13:18:10;60547.97;;;-144.80;100.00
43701;BME280;58809;47.984;7.964;2022-07-11T13:21:12;60547.97;;;-144.80;100.00
43701;BME280;58809;47.984;7.964;2022-07-11T13:24:14;60547.97;;;-144.80;100.00
43701;BME280;58809;47.984;7.964;2022-07-11T13:27:21;60547.97;;;-144.80;100.00
43701;BME280;58809;47.984;7.964;2022-07-11T13:30:23;60547.97;;;-144.80;100.00
43701;BME280;58809;47.984;7.964;2022-07-11T13:33:50;60547.97;;;-144.80;100.00
43701;BME280;58809;47.984;7.964;2022-07-11T13:36:51;60547.97;;;-144.80;100.00
43701;BME280;58809;47.984;7.964;2022-07-11T13:39:53;60547.97;;;-144.80;100.00
43701;BME280;58809;47.984;7.964;2022-07-11T13:42:54;60547.97;;;-144.80;100.00
43701;BME280;58809;47.984;7.964;2022-07-11T13:45:56;60547.97;;;-144.80;100.00
43701;BME280;58809;47.984;7.964;2022-07-11T13:48:58;60547.97;;;-144.80;100.00
43701;BME280;58809;47.984;7.964;2022-07-11T13:51:59;60547.97;;;-144.80;100.00
43701;BME280;58809;47.984;7.964;2022-07-11T13:55:02;60547.97;;;-144.80;100.00
43701;BME280;58809;47.984;7.964;2022-07-11T13:58:03;60547.97;;;-144.80;100.00
43701;BME280;58809;47.984;7.964;2022-07-11T14:01:05;60547.97;;;-144.80;100.00
43701;BME280;58809;47.984;7.964;2022-07-11T14:04:07;60547.97;;;-144.80;100.00
43701;BME280;58809;47.984;7.964;2022-07-11T14:07:09;60547.97;;;-144.80;100.00
43701;BME280;58809;47.984;7.964;2022-07-11T14:10:13;60547.97;;;-144.80;100.00
43701;BME280;58809;47.984;7.964;2022-07-11T14:13:14;60547.97;;;-144.80;100.00
43701;BME280;58809;47.984;7.964;2022-07-11T14:16:16;60547.97;;;-144.80;100.00
43701;BME280;58809;47.984;7.964;2022-07-11T14:19:28;60547.97;;;-144.80;100.00
43701;BME280;58809;47.984;7.964;2022-07-11T14:22:30;60547.97;;;-144.80;100.00
43701;BME280;58809;47.984;7.964;2022-07-11T14:25:32;60547.97;;;-144.80;100.00
43701;BME280;58809;47.984;7.964;2022-07-11T14:28:33;60547.97;;;-144.80;100.00
43701;BME280;58809;47.984;7.964;2022-07-11T14:31:35;60547.97;;;-144.80;100.00
43701;BME280;58809;47.984;7.964;2022-07-11T14:34:37;60547.97;;;-144.80;100.00
43701;BME280;58809;47.984;7.964;2022-07-11T14:37:38;60547.97;;;-144.80;100.00
43701;BME280;58809;47.984;7.964;2022-07-11T14:40:40;60547.97;;;-144.80;100.00
43701;BME280;58809;47.984;7.964;2022-07-11T14:43:45;60547.97;;;-144.80;100.00
43701;BME280;58809;47.984;7.964;2022-07-11T14:46:48;60547.97;;;-144.80;100.00
43701;BME280;58809;47.984;7.964;2022-07-11T14:49:49;60547.97;;;-144.80;100.00
43701;BME280;58809;47.984;7.964;2022-07-11T14:52:51;60547.97;;;-144.80;100.00
43701;BME280;58809;47.984;7.964;2022-07-11T14:55:53;60547.97;;;-144.80;100.00
43701;BME280;58809;47.984;7.964;2022-07-11T14:59:15;60547.97;;;-144.80;100.00
43701;BME280;58809;47.984;7.964;2022-07-11T15:02:17;60547.97;;;-144.80;100.00
43701;BME280;58809;47.984;7.964;2022-07-11T15:05:39;60547.97;;;-144.80;100.00
43701;BME280;58809;47.984;7.964;2022-07-11T15:08:41;60547.97;;;-144.80;100.00
43701;BME280;58809;47.984;7.964;2022-07-11T15:12:01;60547.97;;;-144.80;100.00
43701;BME280;58809;47.984;7.964;2022-07-11T15:15:41;60547.97;;;-144.80;100.00
43701;BME280;58809;47.984;7.964;2022-07-11T15:18:43;60547.97;;;-144.80;100.00
43701;BME280;58809;47.984;7.964;2022-07-11T15:21:45;60547.97;;;-144.80;100.00
43701;BME280;58809;47.984;7.964;2022-07-11T15:24:47;60547.97;;;-144.80;100.00
43701;BME280;58809;47.984;7.964;2022-07-11T15:27:49;60547.97;;;-144.80;100.00
43701;BME280;58809;47.984;7.964;2022-07-11T15:30:51;60547.97;;;-144.80;100.00
43701;BME280;58809;47.984;7.964;2022-07-11T15:33:52;60547.97;;;-144.80;100.00
43701;BME280;58809;47.984;7.964;2022-07-11T15:36:54;60547.97;;;-144.80;100.00
43701;BME280;58809;47.984;7.964;2022-07-11T15:39:56;60547.97;;;-144.80;100.00
43701;BME280;58809;47.984;7.964;2022-07-11T15:43:05;97524.50;;;33.26;nan
43701;BME280;58809;47.984;7.964;2022-07-11T15:46:07;97531.75;;;33.48;nan
43701;BME280;58809;47.984;7.964;2022-07-11T15:49:08;97529.78;;;33.05;nan
43701;BME280;58809;47.984;7.964;2022-07-11T15:52:10;97531.09;;;33.16;nan
43701;BME280;58809;47.984;7.964;2022-07-11T15:55:12;97533.13;;;32.93;nan
43701;BME280;58809;47.984;7.964;2022-07-11T15:58:14;97527.81;;;32.96;nan
43701;BME280;58809;47.984;7.964;2022-07-11T16:01:15;97538.06;;;33.40;nan
43701;BME280;58809;47.984;7.964;2022-07-11T16:04:17;97531.13;;;33.77;nan
43701;BME280;58809;47.984;7.964;2022-07-11T16:07:18;97531.91;;;33.86;nan
43701;BME280;58809;47.984;7.964;2022-07-11T16:10:20;97533.25;;;34.75;nan
43701;BME280;58809;47.984;7.964;2022-07-11T16:13:22;97531.84;;;39.58;nan
43701;BME280;58809;47.984;7.964;2022-07-11T16:16:24;97552.97;;;42.23;nan
43701;BME280;58809;47.984;7.964;2022-07-11T16:19:26;97544.56;;;44.00;nan
43701;BME280;58809;47.984;7.964;2022-07-11T16:22:30;97550.56;;;45.24;nan
43701;BME280;58809;47.984;7.964;2022-07-11T16:25:32;97547.28;;;46.32;nan
43701;BME280;58809;47.984;7.964;2022-07-11T16:28:35;97540.91;;;47.87;nan
43701;BME280;58809;47.984;7.964;2022-07-11T16:31:37;97548.72;;;49.25;nan
43701;BME280;58809;47.984;7.964;2022-07-11T16:34:39;97555.91;;;47.39;nan
43701;BME280;58809;47.984;7.964;2022-07-11T16:37:41;97545.34;;;47.85;nan
43701;BME280;58809;47.984;7.964;2022-07-11T16:40:42;97554.31;;;47.76;nan